Fivelborg — PCEL — position and weather

sailwx.info

Track history (hours):
 
Tides and Currents Weather Stations Pressure Air Temp Water Temp Dewpoint Dewpoint Depression Visibility Wind Speed Wind Dir Waves Ship Positions

Fivelborg

Last reported at 2017-Dec-11 16:45 UTC. Time now 2017-Dec-13 17:03 UTC.
Position N 55°10' E 011°04'.

Length 154 m; draft 8.4 m.

Type: Cargo ship. MMSI: 245466000.

Date/timePositionNaut miles runAvg speedWind from/ knotsBaromVisibWave heightAir tempDewpointWater temp
2017-Dec-11 16:45N 55°10' E 011°04'311.6
2017-Dec-11 16:30N 55°07' E 011°03'611.8
2017-Dec-11 16:00N 55°01' E 011°02'611.2
2017-Dec-11 15:30N 54°57' E 010°57'611.9
2017-Dec-11 15:00N 54°51' E 010°53'611.9
2017-Dec-11 14:30N 54°45' E 010°53'510.5
2017-Dec-11 14:00N 54°41' E 010°57'611.7
2017-Dec-11 13:30N 54°38' E 011°06'611.5
2017-Dec-11 13:00N 54°35' E 011°15'611.7
2017-Dec-11 12:30N 54°33' E 011°24'611.8
2017-Dec-11 12:00N 54°30' E 011°33'611.9
2017-Dec-11 11:30N 54°28' E 011°43'611.5
2017-Dec-11 11:00N 54°27' E 011°53'611.6
2017-Dec-11 10:30N 54°27' E 012°03'6510.8
2017-Dec-11 04:32N 54°59' E 013°40'511.2
2017-Dec-11 04:05N 55°01' E 013°48'311.2
2017-Dec-11 03:47N 55°02' E 013°53'411.1
2017-Dec-11 03:23N 55°03' E 014°01'410.6
2017-Dec-11 02:59N 55°06' E 014°07'511.1
2017-Dec-11 02:30N 55°10' E 014°13'611.3
2017-Dec-11 01:59N 55°15' E 014°19'611.4
2017-Dec-11 01:30N 55°19' E 014°25'611.5
2017-Dec-11 01:00N 55°23' E 014°31'711.0
2017-Dec-11 00:24N 55°28' E 014°40'411.1
2017-Dec-11 00:00N 55°30' E 014°47'611.0
2017-Dec-10 23:30N 55°33' E 014°55'511.0
2017-Dec-10 23:00N 55°36' E 015°04'611.0
2017-Dec-10 22:27N 55°39' E 015°13'510.9
2017-Dec-10 22:00N 55°41' E 015°20'510.7
2017-Dec-10 21:30N 55°44' E 015°29'510.8
2017-Dec-10 21:00N 55°46' E 015°37'510.9
2017-Dec-10 20:30N 55°49' E 015°45'510.8
2017-Dec-10 20:00N 55°52' E 015°53'510.8
2017-Dec-10 19:30N 55°55' E 016°02'510.6
2017-Dec-10 19:00N 55°57' E 016°10'610.6
2017-Dec-10 18:28N 56°00' E 016°19'257 9.7
2017-Dec-09 15:52N 59°59' E 019°20'410.8
2017-Dec-09 15:30N 60°02' E 019°15'510.9
2017-Dec-09 15:00N 60°06' E 019°07'610.6
2017-Dec-09 14:29N 60°11' E 019°02'510.5
2017-Dec-09 14:00N 60°16' E 019°01'  
Track history (hours):
 
Tides and Currents Weather Stations Pressure Air Temp Water Temp Dewpoint Dewpoint Depression Visibility Wind Speed Wind Dir Waves Ship Positions

Fivelborg

Last reported at 2017-Dec-11 16:45 UTC. Time now 2017-Dec-13 17:03 UTC.
Position N 55°10' E 011°04'.

Length 154 m; draft 8.4 m.

Type: Cargo ship. MMSI: 245466000.

Date/timePositionNaut miles runAvg speedWind from/ knotsBaromVisibWave heightAir tempDewpointWater temp
2017-Dec-11 16:45N 55°10' E 011°04'311.6
2017-Dec-11 16:30N 55°07' E 011°03'611.8
2017-Dec-11 16:00N 55°01' E 011°02'611.2
2017-Dec-11 15:30N 54°57' E 010°57'611.9
2017-Dec-11 15:00N 54°51' E 010°53'611.9
2017-Dec-11 14:30N 54°45' E 010°53'510.5
2017-Dec-11 14:00N 54°41' E 010°57'611.7
2017-Dec-11 13:30N 54°38' E 011°06'611.5
2017-Dec-11 13:00N 54°35' E 011°15'611.7
2017-Dec-11 12:30N 54°33' E 011°24'611.8
2017-Dec-11 12:00N 54°30' E 011°33'611.9
2017-Dec-11 11:30N 54°28' E 011°43'611.5
2017-Dec-11 11:00N 54°27' E 011°53'611.6
2017-Dec-11 10:30N 54°27' E 012°03'6510.8
2017-Dec-11 04:32N 54°59' E 013°40'511.2
2017-Dec-11 04:05N 55°01' E 013°48'311.2
2017-Dec-11 03:47N 55°02' E 013°53'411.1
2017-Dec-11 03:23N 55°03' E 014°01'410.6
2017-Dec-11 02:59N 55°06' E 014°07'511.1
2017-Dec-11 02:30N 55°10' E 014°13'611.3
2017-Dec-11 01:59N 55°15' E 014°19'611.4
2017-Dec-11 01:30N 55°19' E 014°25'611.5
2017-Dec-11 01:00N 55°23' E 014°31'711.0
2017-Dec-11 00:24N 55°28' E 014°40'411.1
2017-Dec-11 00:00N 55°30' E 014°47'611.0
2017-Dec-10 23:30N 55°33' E 014°55'511.0
2017-Dec-10 23:00N 55°36' E 015°04'611.0
2017-Dec-10 22:27N 55°39' E 015°13'510.9
2017-Dec-10 22:00N 55°41' E 015°20'510.7
2017-Dec-10 21:30N 55°44' E 015°29'510.8
2017-Dec-10 21:00N 55°46' E 015°37'510.9
2017-Dec-10 20:30N 55°49' E 015°45'510.8
2017-Dec-10 20:00N 55°52' E 015°53'510.8
2017-Dec-10 19:30N 55°55' E 016°02'510.6
2017-Dec-10 19:00N 55°57' E 016°10'610.6
2017-Dec-10 18:28N 56°00' E 016°19'257 9.7
2017-Dec-09 15:52N 59°59' E 019°20'410.8
2017-Dec-09 15:30N 60°02' E 019°15'510.9
2017-Dec-09 15:00N 60°06' E 019°07'610.6
2017-Dec-09 14:29N 60°11' E 019°02'510.5
2017-Dec-09 14:00N 60°16' E 019°01'  

Dump ship's entire track history